Time;durP1;ratioP1;P1;durP2;ratioP2;P2;SDS_P1;SDS_P2;PMS_P1;PMS_P2;Temp;Humidity;BMP_temperature;BMP_pressure;BME280_temperature;BME280_humidity;BME280_pressure;Samples;Min_cycle;Max_cycle;Signal;HPM_P1;HPM_P2
2022/10/18 07:38:48;;;;;;;10.68;3.38;;;;;;;15.68;79.29;97478.91;2108383;27;20601;-65
2022/10/18 08:48:55;;;;;;;6.18;2.83;;;;;;;23.72;55.01;97539.69;2101517;27;20522;-65
2022/10/18 08:50:18;;;;;;;9.63;3.30;;;;;;;23.68;54.61;97535.59;2101330;28;20305;-66
2022/10/18 08:51:37;;;;;;;4.75;2.20;;;;;;;22.64;57.02;97536.03;2065388;28;20221;-66
2022/10/18 08:52:54;;;;;;;11.93;2.55;;;;;;;22.27;58.27;97539.78;2066106;28;20248;-66
2022/10/18 08:54:05;;;;;;;6.03;3.40;;;;;;;21.83;60.06;97542.22;2067862;28;20236;-66
2022/10/18 09:14:13;;;;;;;6.78;2.22;;;;;;;26.85;49.89;97550.81;2108096;27;20521;-65
2022/10/18 09:15:49;;;;;;;16.90;2.63;;;;;;;26.79;49.33;97548.75;2092985;28;20211;-65
2022/10/18 09:16:53;;;;;;;4.75;2.28;;;;;;;27.10;48.17;97556.47;2107741;28;20253;-65
2022/10/18 09:18:17;;;;;;;6.35;2.45;;;;;;;27.28;47.73;97552.97;2094460;28;20290;-65
2022/10/18 09:19:43;;;;;;;7.03;2.45;;;;;;;28.33;45.00;97556.69;2097517;28;20223;-65
2022/10/18 09:20:59;;;;;;;4.93;2.08;;;;;;;28.86;44.48;97561.16;2091055;28;20250;-67
2022/10/18 09:22:28;;;;;;;6.65;2.15;;;;;;;29.35;42.98;97557.81;2109125;28;20245;-67
2022/10/18 09:23:46;;;;;;;7.05;2.30;;;;;;;29.84;43.14;97557.84;2092254;28;20226;-67
2022/10/18 09:25:02;;;;;;;4.83;2.10;;;;;;;29.11;44.36;97570.16;2087416;28;20283;-66
2022/10/18 09:26:18;;;;;;;5.70;1.83;;;;;;;28.55;44.78;97564.38;2094966;28;21065;-65
2022/10/18 09:27:27;;;;;;;11.50;6.57;;;;;;;28.93;44.55;97563.03;2105607;28;20517;-66
2022/10/18 09:35:17;;;;;;;7.10;1.70;;;;;;;31.06;40.38;97568.56;2091143;28;20433;-67
2022/10/18 09:36:25;;;;;;;3.60;1.70;;;;;;;30.59;41.13;97556.75;2089120;28;20544;-67
2022/10/18 09:37:31;;;;;;;13.93;1.93;;;;;;;30.60;41.32;97560.28;2088594;28;20505;-67
2022/10/18 09:38:44;;;;;;;4.77;2.10;;;;;;;31.21;39.98;97565.94;2091133;28;20449;-66
2022/10/18 09:39:48;;;;;;;17.77;2.23;;;;;;;30.89;40.19;97556.13;2087543;28;21074;-66
2022/10/18 09:41:04;;;;;;;5.97;2.77;;;;;;;31.20;40.12;97566.13;2087705;28;20487;-67
2022/10/18 09:42:27;;;;;;;9.30;1.93;;;;;;;31.21;39.98;97568.66;2091677;28;20470;-67
2022/10/18 09:43:47;;;;;;;3.53;1.90;;;;;;;30.70;41.29;97573.56;2091238;28;20443;-66
2022/10/18 09:45:26;;;;;;;4.60;1.60;;;;;;;30.69;41.27;97567.34;2091604;28;20454;-67
2022/10/18 09:46:35;;;;;;;10.10;2.20;;;;;;;31.02;40.32;97566.34;2089587;28;20464;-67
2022/10/18 09:48:25;;;;;;;7.60;1.60;;;;;;;31.15;40.31;97571.19;2091261;28;20460;-67
2022/10/18 09:49:36;;;;;;;10.67;2.70;;;;;;;31.18;40.28;97557.38;2086832;28;20525;-67
2022/10/18 09:50:47;;;;;;;6.63;1.60;;;;;;;31.80;39.29;97563.72;2090069;28;20533;-67
2022/10/18 09:51:51;;;;;;;3.63;1.60;;;;;;;31.83;38.63;97566.88;2109241;28;20424;-67
2022/10/18 09:53:11;;;;;;;5.70;2.20;;;;;;;31.62;38.73;97564.84;2096805;28;20436;-67
2022/10/18 09:54:48;;;;;;;8.07;2.30;;;;;;;31.41;38.88;97565.47;2092273;28;20432;-66
2022/10/18 09:55:59;;;;;;;4.43;1.70;;;;;;;31.40;38.42;97558.41;2093265;28;20498;-66
2022/10/18 09:57:36;;;;;;;4.97;1.70;;;;;;;31.56;38.27;97562.84;2103085;28;20510;-66
2022/10/18 09:58:43;;;;;;;9.03;2.40;;;;;;;31.06;38.94;97567.72;2090623;28;20456;-67
2022/10/18 09:59:46;;;;;;;6.63;3.63;;;;;;;31.12;39.87;97568.84;2093703;28;21031;-69
2022/10/18 10:00:50;;;;;;;6.27;3.70;;;;;;;31.65;38.75;97548.28;2092646;28;20464;-69
2022/10/18 10:01:51;;;;;;;10.63;3.67;;;;;;;31.98;38.53;97561.50;2107306;28;20472;-69
2022/10/18 10:02:53;;;;;;;9.03;2.60;;;;;;;32.17;37.95;97565.56;2095151;28;20551;-70
2022/10/18 10:03:55;;;;;;;6.53;2.03;;;;;;;31.95;37.97;97559.19;2091724;28;21229;-75
2022/10/18 10:04:56;;;;;;;11.87;2.30;;;;;;;31.41;39.26;97566.34;2090415;28;20461;-71
2022/10/18 10:06:14;;;;;;;7.73;2.40;;;;;;;31.55;38.61;97564.72;2090129;28;20476;-69
2022/10/18 10:07:19;;;;;;;7.63;2.13;;;;;;;32.07;37.77;97563.13;2102663;28;20507;-74
2022/10/18 10:08:31;;;;;;;7.67;2.23;;;;;;;31.04;39.16;97559.75;2090764;28;20508;-70
2022/10/18 10:10:00;;;;;;;7.23;1.93;;;;;;;30.87;38.81;97561.69;2090726;28;20556;-69
2022/10/18 10:11:02;;;;;;;8.17;1.97;;;;;;;31.11;39.37;97557.25;2081290;28;20511;-68
2022/10/18 10:12:03;;;;;;;5.00;1.97;;;;;;;30.67;40.51;97563.13;2091139;28;20475;-68
2022/10/18 10:13:23;;;;;;;7.30;1.83;;;;;;;31.13;39.39;97562.44;2089921;28;20511;-68
2022/10/18 10:14:29;;;;;;;8.70;2.03;;;;;;;31.39;39.22;97567.53;2090228;28;20438;-68
2022/10/18 10:15:32;;;;;;;7.70;2.13;;;;;;;31.07;39.09;97566.69;2089268;28;20488;-68
2022/10/18 10:17:05;;;;;;;4.50;1.50;;;;;;;29.99;40.41;97567.97;2090627;28;20432;-69
2022/10/18 10:18:32;;;;;;;8.13;1.90;;;;;;;30.74;40.37;97567.66;2090087;28;20428;-69
2022/10/18 10:19:57;;;;;;;6.73;2.43;;;;;;;30.82;39.95;97566.78;2087091;28;20475;-66
2022/10/18 10:21:05;;;;;;;4.22;1.60;;;;;;;30.85;39.57;97565.59;2086734;28;20539;-68
2022/10/18 10:22:13;;;;;;;7.73;2.13;;;;;;;30.70;40.56;97568.16;2098935;28;20199;-70
2022/10/18 10:23:25;;;;;;;5.32;1.77;;;;;;;31.01;39.65;97565.50;2090846;28;20441;-69
2022/10/18 10:24:42;;;;;;;5.25;1.95;;;;;;;30.39;39.83;97558.97;2090918;28;20189;-69
2022/10/18 10:25:50;;;;;;;7.72;1.98;;;;;;;30.56;39.59;97565.19;2084865;28;20233;-70
2022/10/18 10:26:59;;;;;;;3.60;1.60;;;;;;;30.13;40.65;97551.97;2099488;28;20281;-70
2022/10/18 10:28:10;;;;;;;2.08;1.27;;;;;;;30.30;40.33;97566.22;2088517;28;20196;-69
2022/10/18 10:29:46;;;;;;;7.60;1.75;;;;;;;30.52;40.01;97560.31;2089250;28;20257;-69
2022/10/18 10:30:48;;;;;;;7.13;2.42;;;;;;;30.47;41.99;97566.19;2081474;28;20216;-69
2022/10/18 10:32:03;;;;;;;13.13;2.63;;;;;;;30.97;41.79;97572.28;2098265;28;20239;-70
2022/10/18 10:33:05;;;;;;;10.13;2.25;;;;;;;31.42;40.43;97561.75;2087913;28;20207;-70
2022/10/18 10:34:13;;;;;;;10.90;2.05;;;;;;;31.74;40.15;97570.66;2087564;28;20299;-68
2022/10/18 10:35:35;;;;;;;5.70;1.93;;;;;;;32.06;39.84;97558.75;2084141;28;20236;-68
2022/10/18 10:36:57;;;;;;;5.97;1.63;;;;;;;31.75;39.23;97567.78;2088589;28;20471;-68
2022/10/18 10:37:59;;;;;;;9.18;3.17;;;;;;;31.26;41.06;97571.66;2086725;28;20656;-68
2022/10/18 10:39:11;;;;;;;4.43;2.07;;;;;;;31.86;39.06;97558.41;2085413;28;20727;-68
2022/10/18 10:40:44;;;;;;;9.90;1.73;;;;;;;32.14;39.46;97575.88;2074781;28;20510;-68
2022/10/18 10:42:11;;;;;;;4.23;1.83;;;;;;;33.03;38.48;97573.25;2097873;28;20524;-67
2022/10/18 10:43:20;;;;;;;12.30;2.30;;;;;;;33.09;38.14;97574.38;2082828;28;20458;-68
2022/10/18 10:44:53;;;;;;;10.50;2.00;;;;;;;32.43;38.78;97571.56;2086292;28;20882;-67
2022/10/18 10:46:02;;;;;;;5.37;1.80;;;;;;;32.03;37.83;97566.38;2086850;28;20470;-67
2022/10/18 10:47:05;;;;;;;4.37;1.90;;;;;;;31.88;38.64;97567.19;2100492;28;20943;-67
2022/10/18 10:48:14;;;;;;;9.07;1.97;;;;;;;31.89;39.04;97568.84;2087350;28;20430;-67
2022/10/18 10:49:20;;;;;;;8.20;1.80;;;;;;;32.06;38.91;97574.97;2084454;28;20457;-67
2022/10/18 10:51:10;;;;;;;7.70;1.90;;;;;;;31.41;39.13;97565.47;2083185;28;20568;-66
2022/10/18 10:52:26;;;;;;;13.83;2.17;;;;;;;31.63;38.91;97568.38;2085402;28;20946;-67
2022/10/18 10:53:37;;;;;;;5.70;1.63;;;;;;;31.26;38.89;97558.16;2083886;28;20426;-69
2022/10/18 10:54:42;;;;;;;3.30;1.47;;;;;;;31.76;39.83;97560.53;2085729;28;20430;-69
2022/10/18 10:55:55;;;;;;;3.73;1.53;;;;;;;30.72;40.19;97552.69;2087921;28;20868;-68
2022/10/18 10:57:18;;;;;;;9.13;1.80;;;;;;;31.25;39.90;97555.66;2085979;28;20805;-68
2022/10/18 11:05:25;;;;;;;3.35;1.65;;;;;;;30.10;41.44;97562.22;2085072;28;20287;-65
2022/10/18 11:06:44;;;;;;;3.55;1.67;;;;;;;30.82;40.43;97556.00;2084047;28;20466;-66
2022/10/18 11:07:46;;;;;;;6.38;1.95;;;;;;;30.48;41.85;97546.34;2084642;28;20225;-67
2022/10/18 11:08:50;;;;;;;5.10;1.50;;;;;;;30.26;40.88;97548.72;2081222;28;20284;-65
2022/10/18 11:16:34;;;;;;;4.85;1.55;;;;;;;28.45;42.31;97553.75;2084676;28;20236;-67
2022/10/18 11:17:38;;;;;;;7.88;1.65;;;;;;;27.38;43.69;97553.72;2084102;28;20666;-66
2022/10/18 11:18:45;;;;;;;5.30;1.33;;;;;;;26.76;45.26;97551.72;2084678;28;20237;-68
2022/10/18 11:20:10;;;;;;;7.10;1.40;;;;;;;27.94;44.17;97561.63;2083692;28;20230;-65
2022/10/18 11:21:18;;;;;;;5.35;1.92;;;;;;;28.51;43.06;97550.41;2080839;28;20220;-65
2022/10/18 11:22:24;;;;;;;6.97;2.58;;;;;;;27.52;44.30;97555.88;2082210;28;20725;-65
2022/10/18 11:23:35;;;;;;;17.75;12.10;;;;;;;28.32;43.85;97557.69;2084837;28;20208;-65
2022/10/18 11:24:41;;;;;;;4.82;1.40;;;;;;;28.24;43.44;97556.78;2084526;28;20226;-68
2022/10/18 11:25:48;;;;;;;5.38;1.80;;;;;;;27.63;44.19;97536.06;2081873;28;20358;-67
2022/10/18 11:27:05;;;;;;;7.78;1.92;;;;;;;27.00;45.11;97528.88;2101018;28;20241;-68
2022/10/18 11:28:17;;;;;;;11.93;1.95;;;;;;;26.97;45.64;97548.78;2088125;28;20211;-68
2022/10/18 11:29:32;;;;;;;4.90;1.88;;;;;;;27.10;46.05;97555.63;2087779;28;20221;-68
2022/10/18 11:30:48;;;;;;;5.60;1.50;;;;;;;27.79;44.93;97548.75;2084410;28;20255;-70
2022/10/18 11:32:29;;;;;;;4.70;1.75;;;;;;;27.47;44.86;97543.94;2087452;28;20291;-69
2022/10/18 11:34:01;;;;;;;4.35;1.42;;;;;;;27.75;44.94;97562.63;2082035;28;20247;-69
2022/10/18 11:35:21;;;;;;;3.95;1.42;;;;;;;27.83;45.76;97552.81;2084476;28;20246;-69
2022/10/18 11:36:33;;;;;;;5.57;1.50;;;;;;;28.26;44.89;97558.31;2086079;28;20196;-68
2022/10/18 11:37:40;;;;;;;8.27;1.70;;;;;;;28.60;45.84;97554.00;2083052;28;20196;-69
2022/10/18 11:44:03;;;;;;;3.38;1.38;;;;;;;29.70;41.95;97566.56;2084601;28;20532;-69
2022/10/18 11:45:26;;;;;;;4.18;1.30;;;;;;;28.68;42.71;97562.09;2084233;28;20201;-69
2022/10/18 11:47:00;;;;;;;6.68;1.10;;;;;;;28.55;44.90;97570.56;2090617;28;20220;-68
2022/10/18 11:48:39;;;;;;;3.22;0.90;;;;;;;26.83;46.05;97557.31;2086831;28;20566;-68
2022/10/18 11:50:09;;;;;;;5.38;1.40;;;;;;;26.44;47.22;97552.13;2082538;28;20715;-69
2022/10/18 11:51:32;;;;;;;3.25;1.00;;;;;;;25.88;48.19;97554.63;2071260;28;20244;-68
2022/10/18 11:53:07;;;;;;;6.38;1.13;;;;;;;27.82;45.30;97553.81;2076092;28;20248;-68
2022/10/18 11:54:24;;;;;;;6.75;1.17;;;;;;;27.68;45.12;97563.25;2075299;28;20280;-69
2022/10/18 11:55:49;;;;;;;3.35;1.52;;;;;;;28.24;44.48;97554.13;2077606;28;20232;-68
2022/10/18 11:57:18;;;;;;;5.50;1.52;;;;;;;27.61;44.93;97527.31;2082289;28;20228;-68
2022/10/18 11:58:32;;;;;;;8.98;1.40;;;;;;;27.62;45.84;97537.03;2087710;28;20708;-69
2022/10/18 11:59:58;;;;;;;6.30;2.22;;;;;;;28.10;45.17;97552.84;2083949;28;20231;-68
2022/10/18 12:01:24;;;;;;;3.92;1.58;;;;;;;28.97;44.93;97552.81;2086186;28;20558;-68
2022/10/18 12:02:56;;;;;;;5.63;1.40;;;;;;;28.98;44.56;97551.81;2084902;28;20236;-68
2022/10/18 12:04:06;;;;;;;3.95;1.30;;;;;;;28.86;44.63;97553.94;2085444;28;20561;-68
2022/10/18 12:05:10;;;;;;;4.80;1.70;;;;;;;29.40;43.86;97528.56;2083583;28;20836;-68
2022/10/18 12:06:35;;;;;;;4.95;1.50;;;;;;;29.60;42.88;97542.56;2081113;28;20648;-68
2022/10/18 12:07:49;;;;;;;5.78;1.63;;;;;;;29.61;42.85;97544.22;2080951;28;20926;-68
2022/10/18 12:08:58;;;;;;;5.20;1.40;;;;;;;29.55;42.98;97542.22;2084298;28;20897;-68
2022/10/18 12:10:06;;;;;;;5.65;1.80;;;;;;;29.32;44.08;97538.31;2083038;28;20236;-68
2022/10/18 12:11:21;;;;;;;4.97;1.92;;;;;;;28.99;44.78;97553.50;2068387;28;20375;-68
2022/10/18 12:12:26;;;;;;;2.20;1.40;;;;;;;28.96;44.51;97543.91;2088100;28;20230;-67
2022/10/18 12:13:40;;;;;;;14.05;3.15;;;;;;;28.99;43.92;97537.38;2087923;28;20225;-69
2022/10/18 12:14:48;;;;;;;5.93;2.05;;;;;;;28.89;44.78;97537.50;2087697;28;20212;-68
2022/10/18 12:15:51;;;;;;;8.10;1.52;;;;;;;29.31;43.63;97531.25;2085286;28;20748;-68
2022/10/18 12:16:57;;;;;;;6.18;1.60;;;;;;;29.09;44.49;97543.44;2078656;28;20597;-69
2022/10/18 12:18:24;;;;;;;6.78;1.83;;;;;;;28.40;45.07;97540.78;2083049;28;20602;-68
2022/10/18 12:19:28;;;;;;;6.13;1.70;;;;;;;28.43;45.23;97523.50;2083453;28;20209;-68
2022/10/18 12:20:35;;;;;;;6.63;2.05;;;;;;;29.11;44.36;97533.34;2081008;28;20303;-68
2022/10/18 12:21:37;;;;;;;7.47;1.70;;;;;;;29.42;43.66;97526.53;2082646;28;20658;-68
2022/10/18 12:22:46;;;;;;;4.47;1.80;;;;;;;29.39;44.08;97535.78;2085398;28;20229;-68
2022/10/18 12:23:52;;;;;;;10.23;2.30;;;;;;;29.53;43.08;97528.06;2082437;28;20232;-68
2022/10/18 12:24:54;;;;;;;5.30;1.75;;;;;;;28.50;45.08;97530.75;2085774;28;20232;-68
2022/10/18 12:26:01;;;;;;;4.18;1.67;;;;;;;28.33;45.07;97532.53;2085791;28;20219;-68
2022/10/18 12:32:13;;;;;;;4.15;1.50;;;;;;;29.05;44.11;97541.25;2083352;28;20213;-68
2022/10/18 12:33:21;;;;;;;10.43;1.83;;;;;;;28.89;44.15;97532.13;2083781;28;20286;-67
2022/10/18 12:34:52;;;;;;;8.02;2.33;;;;;;;29.64;43.25;97536.66;2083385;28;20287;-67
2022/10/18 12:36:12;;;;;;;5.68;1.73;;;;;;;28.91;44.51;97540.03;2079427;28;20327;-68
2022/10/18 12:37:33;;;;;;;4.05;1.90;;;;;;;28.78;45.30;97540.50;2089666;28;20235;-68
2022/10/18 12:44:02;;;;;;;3.90;1.77;;;;;;;27.86;46.83;97548.97;2085042;28;20595;-67
2022/10/18 12:45:19;;;;;;;4.97;1.70;;;;;;;28.52;45.52;97542.19;2083367;28;20879;-68
2022/10/18 12:46:21;;;;;;;4.95;1.58;;;;;;;28.41;45.89;97538.97;2083176;28;20316;-68
2022/10/18 12:47:24;;;;;;;7.80;1.45;;;;;;;28.69;45.02;97523.50;2083800;28;20197;-67
2022/10/18 12:48:34;;;;;;;2.40;1.30;;;;;;;28.88;44.88;97545.75;2084517;28;20236;-67
2022/10/18 12:49:37;;;;;;;4.97;1.45;;;;;;;28.50;46.00;97536.13;2090526;28;20287;-68
2022/10/18 12:50:44;;;;;;;3.00;1.40;;;;;;;28.83;44.93;97530.91;2086061;28;20228;-68
2022/10/18 12:51:58;;;;;;;6.55;1.65;;;;;;;28.77;44.70;97536.13;2085108;28;20200;-67
2022/10/18 12:53:25;;;;;;;4.50;1.45;;;;;;;28.89;44.42;97534.81;2084221;28;20207;-67
2022/10/18 12:54:38;;;;;;;5.75;1.38;;;;;;;28.88;45.07;97535.81;2084973;28;20372;-67
2022/10/18 12:55:42;;;;;;;3.05;1.05;;;;;;;28.83;44.50;97532.78;2087183;28;20307;-67
2022/10/18 12:56:49;;;;;;;6.38;1.30;;;;;;;29.23;43.51;97541.97;2087899;28;20219;-67
2022/10/18 12:57:51;;;;;;;10.25;1.65;;;;;;;28.77;45.18;97538.81;2083102;28;20231;-68
2022/10/18 12:59:14;;;;;;;17.23;5.68;;;;;;;28.17;44.75;97535.94;2082601;28;20232;-65
2022/10/18 13:00:28;;;;;;;7.05;4.05;;;;;;;28.32;44.68;97540.75;2083808;28;20200;-65
2022/10/18 13:01:49;;;;;;;7.72;5.00;;;;;;;27.86;45.63;97530.19;2084727;28;20232;-68
2022/10/18 13:03:15;;;;;;;12.15;1.30;;;;;;;28.36;45.97;97536.75;2082969;28;20223;-64
2022/10/18 13:04:32;;;;;;;3.78;1.58;;;;;;;28.55;45.25;97535.66;2083060;28;20236;-65
2022/10/18 13:05:45;;;;;;;3.10;1.45;;;;;;;28.41;45.47;97530.91;2082626;28;20226;-66
2022/10/18 13:06:58;;;;;;;9.35;1.77;;;;;;;28.93;44.84;97538.03;2082787;28;20258;-65
2022/10/18 13:08:29;;;;;;;5.97;1.45;;;;;;;28.96;44.99;97537.69;2084519;28;20231;-66
2022/10/18 13:09:34;;;;;;;3.33;1.45;;;;;;;28.83;44.40;97525.53;2083843;28;20212;-66
2022/10/18 13:10:37;;;;;;;4.60;1.75;;;;;;;28.76;44.15;97537.97;2087020;28;20295;-66
2022/10/18 13:11:39;;;;;;;3.55;1.20;;;;;;;28.63;44.46;97534.84;2087723;28;20228;-65
2022/10/18 13:12:46;;;;;;;6.05;1.70;;;;;;;28.52;45.45;97536.81;2082898;28;20232;-66
2022/10/18 13:32:06;;;;;;;4.40;1.17;;;;;;;26.18;49.81;97525.97;2084203;28;20453;-69
2022/10/18 13:33:33;;;;;;;2.90;1.30;;;;;;;25.30;51.50;97531.41;2082085;28;20200;-68
2022/10/18 13:34:37;;;;;;;9.18;1.42;;;;;;;25.77;51.47;97517.34;2083672;28;20239;-69
2022/10/18 13:35:50;;;;;;;6.90;1.50;;;;;;;25.89;50.97;97527.72;2082951;28;20244;-67
2022/10/18 13:37:01;;;;;;;5.32;1.30;;;;;;;26.54;49.56;97520.78;2084011;28;20197;-67
2022/10/18 13:38:04;;;;;;;8.52;1.40;;;;;;;27.12;48.63;97521.47;2084023;28;20228;-67
2022/10/18 13:39:19;;;;;;;6.35;1.38;;;;;;;26.73;49.59;97523.38;2080222;28;20231;-67
2022/10/18 13:40:23;;;;;;;3.75;1.27;;;;;;;26.65;49.87;97515.25;2080325;28;20285;-67
2022/10/18 13:41:32;;;;;;;2.33;1.20;;;;;;;26.28;49.59;97504.53;2080237;28;20880;-67
2022/10/18 13:42:36;;;;;;;8.13;1.27;;;;;;;26.71;48.99;97519.97;2083608;28;20696;-67
2022/10/18 13:43:55;;;;;;;1.73;1.00;;;;;;;26.51;49.08;97518.38;2084104;28;20288;-67
2022/10/18 13:45:31;;;;;;;4.43;1.15;;;;;;;26.58;48.40;97515.97;2082608;28;20200;-67
2022/10/18 13:46:33;;;;;;;2.38;1.10;;;;;;;27.48;48.17;97519.66;2082221;28;20217;-66
2022/10/18 13:47:36;;;;;;;4.03;1.00;;;;;;;27.48;46.39;97502.75;2082705;28;20301;-66
2022/10/18 13:48:38;;;;;;;4.65;1.10;;;;;;;27.34;46.56;97522.88;2083298;28;20239;-66
2022/10/18 13:49:39;;;;;;;3.22;1.10;;;;;;;27.39;46.30;97531.31;2087541;28;20770;-65
2022/10/18 13:50:43;;;;;;;4.80;1.20;;;;;;;26.86;47.68;97528.38;2086998;28;20438;-66
2022/10/18 13:52:03;;;;;;;6.95;1.00;;;;;;;26.67;47.81;97526.63;2080723;28;20233;-65
2022/10/18 13:53:39;;;;;;;5.13;1.20;;;;;;;27.34;47.26;97526.38;2082980;28;20219;-66
2022/10/18 13:55:11;;;;;;;7.72;1.73;;;;;;;27.01;48.04;97506.47;2081212;28;20296;-66
2022/10/18 13:56:40;;;;;;;5.50;1.45;;;;;;;26.46;49.47;97524.22;2080651;28;20300;-66
2022/10/18 13:57:41;;;;;;;5.50;1.58;;;;;;;26.08;50.18;97531.38;2081526;28;20756;-65
2022/10/18 13:58:46;;;;;;;4.28;1.70;;;;;;;25.32;52.08;97532.09;2089838;28;20199;-65
2022/10/18 14:00:27;;;;;;;6.07;1.55;;;;;;;25.26;53.33;97537.00;2086913;28;20228;-65
2022/10/18 14:01:38;;;;;;;6.82;1.40;;;;;;;25.38;53.57;97535.09;2084737;28;20304;-66
2022/10/18 14:03:02;;;;;;;5.57;1.80;;;;;;;24.48;55.88;97535.94;2083842;28;20253;-65
2022/10/18 14:04:10;;;;;;;5.68;1.80;;;;;;;24.24;56.39;97542.44;2085928;28;20836;-65
2022/10/18 14:05:46;;;;;;;4.25;1.70;;;;;;;24.07;57.82;97535.91;2081087;28;20204;-65
2022/10/18 14:06:50;;;;;;;3.08;1.85;;;;;;;24.08;56.84;97534.91;2083945;28;20886;-65
2022/10/18 14:07:59;;;;;;;6.30;1.90;;;;;;;24.12;57.09;97534.53;2084574;28;20227;-65
2022/10/18 14:09:19;;;;;;;6.72;1.80;;;;;;;23.85;57.21;97515.53;2083722;28;20200;-64
2022/10/18 14:11:00;;;;;;;10.52;1.90;;;;;;;23.96;57.68;97534.16;2085421;28;21165;-65
2022/10/18 14:12:15;;;;;;;6.55;1.75;;;;;;;24.01;57.75;97526.63;2084436;28;20209;-64
2022/10/18 14:13:23;;;;;;;5.25;1.40;;;;;;;24.02;57.35;97541.63;2084707;28;20698;-65
2022/10/18 14:14:28;;;;;;;10.57;2.05;;;;;;;24.17;57.80;97542.13;2086116;28;20228;-67
2022/10/18 14:15:38;;;;;;;10.00;2.10;;;;;;;24.07;57.62;97531.38;2084942;28;20239;-67
2022/10/18 14:16:48;;;;;;;3.70;1.55;;;;;;;24.16;57.62;97544.94;2101656;28;20234;-67
2022/10/18 14:17:53;;;;;;;4.32;1.70;;;;;;;23.85;58.22;97545.69;2099723;28;20277;-67
2022/10/18 14:19:16;;;;;;;5.40;1.60;;;;;;;24.26;56.82;97513.81;2085385;28;20334;-68
2022/10/18 14:20:30;;;;;;;8.18;1.60;;;;;;;24.60;55.64;97542.88;2088815;28;20313;-66
2022/10/18 14:21:39;;;;;;;14.55;1.85;;;;;;;25.09;56.02;97529.69;2086819;28;20340;-65
2022/10/18 14:23:07;;;;;;;4.97;1.58;;;;;;;25.04;55.10;97546.13;2083714;28;20228;-64
2022/10/18 14:24:21;;;;;;;6.15;2.28;;;;;;;24.73;55.12;97527.47;2083647;28;20624;-64
2022/10/18 14:25:28;;;;;;;8.82;3.15;;;;;;;24.41;56.01;97523.13;2087871;28;20292;-65
2022/10/18 14:26:31;;;;;;;22.08;11.63;;;;;;;23.87;57.74;97549.09;2085600;28;20684;-64
2022/10/18 14:27:33;;;;;;;12.38;3.75;;;;;;;23.61;58.23;97538.78;2083579;28;20251;-64
2022/10/18 14:28:35;;;;;;;2.75;1.80;;;;;;;23.11;59.78;97530.50;2081317;28;20205;-64
2022/10/18 14:30:29;;;;;;;6.50;2.38;;;;;;;23.32;59.54;97546.56;2083793;28;20741;-64
2022/10/18 14:31:31;;;;;;;4.93;1.90;;;;;;;24.05;58.48;97535.16;2079525;28;20299;-64
2022/10/18 14:32:34;;;;;;;7.70;2.17;;;;;;;23.99;57.77;97535.72;2082259;28;20410;-64
2022/10/18 14:33:37;;;;;;;5.10;2.10;;;;;;;23.75;58.76;97531.47;2083477;28;20200;-64
2022/10/18 14:34:43;;;;;;;2.22;1.20;;;;;;;23.62;58.54;97532.50;2083998;28;20592;-64
2022/10/18 14:36:17;;;;;;;7.15;1.90;;;;;;;23.28;59.55;97529.13;2083779;28;20254;-64
2022/10/18 14:37:24;;;;;;;4.82;1.77;;;;;;;23.18;60.37;97544.19;2082890;28;20549;-64
2022/10/18 14:45:18;;;;;;;9.15;2.00;;;;;;;22.69;60.92;97528.53;2085832;28;20628;-64
2022/10/18 14:46:24;;;;;;;7.75;1.65;;;;;;;22.99;60.00;97535.00;2077304;28;20616;-66
2022/10/18 14:47:29;;;;;;;18.27;1.85;;;;;;;23.42;59.52;97536.81;2080264;28;20205;-64
2022/10/18 14:48:31;;;;;;;9.88;1.98;;;;;;;23.62;59.36;97548.47;2094096;28;20209;-63
2022/10/18 14:49:33;;;;;;;9.32;1.80;;;;;;;22.69;62.31;97533.84;2093177;28;20238;-63
2022/10/18 14:57:05;;;;;;;10.25;2.13;;;;;;;23.18;58.83;97539.69;2084311;28;20217;-63
2022/10/18 14:58:14;;;;;;;8.07;1.70;;;;;;;22.92;59.23;97518.69;2085537;28;20706;-64
2022/10/18 14:59:22;;;;;;;6.32;1.85;;;;;;;23.06;59.13;97525.53;2083367;28;20201;-64
2022/10/18 15:00:44;;;;;;;9.80;2.08;;;;;;;23.22;59.69;97542.97;2083976;28;20200;-64
2022/10/18 15:01:56;;;;;;;2.67;1.50;;;;;;;23.76;58.67;97546.50;2086481;28;20201;-64
2022/10/18 15:02:58;;;;;;;14.63;2.42;;;;;;;24.00;58.27;97545.38;2084819;28;20557;-64
2022/10/18 15:04:08;;;;;;;6.30;1.77;;;;;;;24.35;57.36;97545.00;2083810;28;20220;-64
2022/10/18 15:05:15;;;;;;;7.05;1.50;;;;;;;24.38;57.47;97542.09;2082850;28;20284;-64
2022/10/18 15:06:18;;;;;;;4.45;1.88;;;;;;;23.90;58.42;97540.81;2083540;28;20248;-64
2022/10/18 15:07:19;;;;;;;5.55;1.40;;;;;;;23.60;59.47;97539.78;2084719;28;20312;-64
2022/10/18 15:15:13;;;;;;;10.85;2.83;;;;;;;22.60;63.11;97531.91;2084009;28;20224;-65
2022/10/18 15:16:17;;;;;;;27.70;7.90;;;;;;;22.18;64.31;97545.78;2084212;28;20251;-65
2022/10/18 15:17:27;;;;;;;10.57;3.17;;;;;;;21.98;64.92;97537.56;2082555;28;20197;-64
2022/10/18 15:18:29;;;;;;;14.90;9.05;;;;;;;21.95;65.23;97540.47;2082951;28;20197;-64
2022/10/18 15:19:41;;;;;;;8.88;2.47;;;;;;;21.96;65.18;97546.63;2085349;28;20216;-64
2022/10/18 15:20:43;;;;;;;4.45;1.92;;;;;;;21.98;65.59;97542.88;2084414;28;20330;-64
2022/10/18 15:22:03;;;;;;;7.15;2.35;;;;;;;21.61;66.33;97553.66;2085638;28;20831;-64
2022/10/18 15:23:31;;;;;;;10.18;2.28;;;;;;;21.28;67.44;97549.88;2084797;28;20201;-64
2022/10/18 15:24:34;;;;;;;7.50;1.92;;;;;;;21.18;67.67;97546.22;2081122;28;20287;-64
2022/10/18 15:25:36;;;;;;;6.78;2.47;;;;;;;21.25;67.68;97550.09;2080870;28;20652;-64
2022/10/18 15:26:43;;;;;;;12.43;1.92;;;;;;;21.16;67.87;97550.78;2081231;28;20295;-64
2022/10/18 15:28:03;;;;;;;6.47;2.42;;;;;;;20.86;68.96;97552.03;2083397;28;20231;-64
2022/10/18 15:29:04;;;;;;;8.70;2.25;;;;;;;21.04;68.45;97537.44;2081658;28;20228;-64
2022/10/18 15:30:15;;;;;;;3.45;1.92;;;;;;;20.86;69.10;97544.06;2088463;28;20196;-64
2022/10/18 15:31:27;;;;;;;6.35;2.05;;;;;;;20.79;69.37;97550.81;2087313;28;20304;-64
2022/10/18 15:39:18;;;;;;;11.00;2.58;;;;;;;20.21;71.78;97540.66;2084150;28;20232;-64
2022/10/18 15:40:26;;;;;;;4.15;2.15;;;;;;;20.28;71.47;97547.25;2084121;28;20755;-64
2022/10/18 15:41:49;;;;;;;13.80;3.05;;;;;;;20.29;71.46;97537.47;2083831;28;20235;-64
2022/10/18 15:42:53;;;;;;;3.70;2.38;;;;;;;19.96;72.30;97539.72;2081528;28;20224;-64
2022/10/18 15:50:43;;;;;;;11.27;2.22;;;;;;;20.95;69.30;97532.81;2084217;28;20220;-66
2022/10/18 15:51:48;;;;;;;10.82;2.30;;;;;;;21.06;68.68;97536.47;2085239;28;20306;-64
2022/10/18 15:52:49;;;;;;;5.03;2.08;;;;;;;21.14;68.17;97529.66;2100580;28;20279;-64
2022/10/18 15:53:53;;;;;;;6.82;1.80;;;;;;;21.02;68.70;97514.63;2093829;28;20648;-68
2022/10/18 15:54:55;;;;;;;7.50;2.50;;;;;;;21.00;68.82;97524.47;2084140;28;20738;-65
2022/10/18 16:01:12;;;;;;;14.82;2.45;;;;;;;20.56;70.39;97540.81;2083288;28;20172;-63
2022/10/18 16:02:18;;;;;;;14.07;2.58;;;;;;;20.39;71.04;97534.09;2084083;28;20637;-61
2022/10/18 16:03:21;;;;;;;7.70;2.15;;;;;;;20.29;70.60;97524.22;2085735;28;20240;-61
2022/10/18 16:04:28;;;;;;;6.20;2.10;;;;;;;20.33;71.17;97544.28;2083195;28;20208;-61
2022/10/18 16:05:29;;;;;;;5.50;2.25;;;;;;;20.20;71.61;97549.56;2083032;28;20220;-63
2022/10/18 16:06:34;;;;;;;3.67;2.10;;;;;;;20.12;71.71;97547.44;2085033;28;20247;-62
2022/10/18 16:13:02;;;;;;;4.15;2.00;;;;;;;19.86;72.79;97550.09;2084119;28;20208;-61
2022/10/18 16:14:03;;;;;;;6.90;2.75;;;;;;;19.69;73.15;97547.72;2084286;28;20212;-62
2022/10/18 16:15:05;;;;;;;7.97;2.50;;;;;;;19.55;73.56;97538.91;2086247;28;20200;-62
2022/10/18 16:16:13;;;;;;;15.05;3.33;;;;;;;19.57;73.65;97539.63;2085588;28;20875;-62
2022/10/18 16:17:18;;;;;;;13.25;4.53;;;;;;;19.59;73.92;97544.81;2083220;28;20261;-61
2022/10/18 16:18:21;;;;;;;31.45;17.98;;;;;;;19.48;74.20;97539.44;2083352;28;20284;-63
2022/10/18 16:19:22;;;;;;;11.90;6.90;;;;;;;19.52;73.86;97552.34;2082817;28;20220;-62
2022/10/18 16:20:25;;;;;;;9.32;4.07;;;;;;;19.44;73.88;97551.16;2080088;28;20228;-62
2022/10/18 16:21:36;;;;;;;10.27;2.70;;;;;;;19.40;74.33;97554.00;2082096;28;20680;-60
2022/10/18 16:22:41;;;;;;;3.40;1.70;;;;;;;19.38;74.09;97555.91;2083491;28;20242;-60
2022/10/18 16:23:43;;;;;;;5.63;1.88;;;;;;;19.31;74.55;97559.94;2085880;28;20772;-60
2022/10/18 16:24:45;;;;;;;9.48;2.42;;;;;;;19.28;74.78;97557.47;2081819;28;20232;-60
2022/10/18 16:37:08;;;;;;;9.63;2.10;;;;;;;18.91;75.32;97533.41;2082990;28;20208;-60